createdAt,value
2018-12-08T00:00:14.062Z,6.62
2018-12-08T00:02:44.083Z,6.60
2018-12-08T00:05:13.948Z,6.58
2018-12-08T00:07:44.125Z,6.54
2018-12-08T00:10:13.977Z,6.54
2018-12-08T00:12:43.662Z,6.59
2018-12-08T00:15:13.451Z,6.56
2018-12-08T00:17:43.471Z,6.48
2018-12-08T00:20:16.311Z,6.47
2018-12-08T00:22:46.287Z,6.45
2018-12-08T00:25:16.520Z,6.43
2018-12-08T00:27:46.192Z,6.42
2018-12-08T00:30:52.569Z,6.44
2018-12-08T00:33:25.267Z,6.41
2018-12-08T00:35:55.829Z,6.42
2018-12-08T00:38:25.620Z,6.45
2018-12-08T00:40:55.661Z,6.44
2018-12-08T00:43:25.433Z,6.45
2018-12-08T00:45:55.039Z,6.44
2018-12-08T00:48:25.147Z,6.45
2018-12-08T00:50:54.972Z,6.33
2018-12-08T00:53:24.728Z,6.30
2018-12-08T00:55:54.799Z,6.27
2018-12-08T00:58:24.711Z,6.19
2018-12-08T01:00:54.283Z,6.18
2018-12-08T01:03:23.941Z,6.26
2018-12-08T01:05:53.880Z,6.23
2018-12-08T01:08:23.895Z,6.24
2018-12-08T01:10:54.311Z,6.24
2018-12-08T01:13:24.822Z,6.24
2018-12-08T01:15:54.889Z,6.19
2018-12-08T01:18:25.261Z,6.19
2018-12-08T01:20:56.154Z,6.21
2018-12-08T01:23:26.118Z,6.22
2018-12-08T01:25:56.059Z,6.25
2018-12-08T01:28:28.989Z,6.29
2018-12-08T01:30:58.817Z,6.31
2018-12-08T01:33:29.157Z,6.32
2018-12-08T01:35:59.094Z,6.32
2018-12-08T01:38:32.120Z,6.35
2018-12-08T01:41:02.062Z,6.27
2018-12-08T01:43:32.599Z,6.29
2018-12-08T01:46:04.209Z,6.21
2018-12-08T01:48:37.718Z,6.19
2018-12-08T01:51:09.667Z,6.21
2018-12-08T01:53:40.110Z,6.16
2018-12-08T01:56:10.336Z,6.07
2018-12-08T01:58:43.777Z,6.05
2018-12-08T02:01:13.480Z,5.97
2018-12-08T02:03:46.964Z,5.99
2018-12-08T02:06:16.583Z,6.01
2018-12-08T02:08:46.777Z,5.95
2018-12-08T02:11:24.677Z,5.92
2018-12-08T02:13:47.054Z,5.95
2018-12-08T02:16:17.740Z,5.90
2018-12-08T02:18:47.280Z,5.90
2018-12-08T02:21:16.912Z,5.95
2018-12-08T02:23:46.708Z,5.92
2018-12-08T02:26:16.227Z,5.98
2018-12-08T02:28:46.167Z,6.02
2018-12-08T02:31:15.743Z,5.99
2018-12-08T02:33:45.602Z,6.08
2018-12-08T02:36:20.568Z,6.09
2018-12-08T02:38:50.946Z,6.10
2018-12-08T02:41:22.426Z,6.06
2018-12-08T02:43:52.804Z,6.04
2018-12-08T02:46:23.061Z,5.94
2018-12-08T02:48:52.483Z,5.87
2018-12-08T02:51:23.204Z,5.88
2018-12-08T02:53:53.250Z,5.83
2018-12-08T02:56:23.428Z,5.81
2018-12-08T02:58:56.045Z,5.84
2018-12-08T03:01:26.436Z,5.86
2018-12-08T03:03:56.615Z,5.87
2018-12-08T03:06:32.493Z,5.91
2018-12-08T03:09:02.569Z,5.90
2018-12-08T03:11:32.859Z,5.89
2018-12-08T03:14:02.502Z,5.96
2018-12-08T03:16:32.339Z,6.03
2018-12-08T03:19:02.555Z,5.99
2018-12-08T03:21:32.622Z,6.00
2018-12-08T03:24:03.080Z,6.00
2018-12-08T03:26:33.957Z,6.01
2018-12-08T03:29:04.052Z,6.06
2018-12-08T03:31:34.483Z,6.11
2018-12-08T03:34:05.042Z,6.13
2018-12-08T03:36:34.767Z,6.19
2018-12-08T03:39:05.552Z,6.23
2018-12-08T03:41:35.402Z,6.27
2018-12-08T03:44:04.951Z,6.30
2018-12-08T03:46:35.485Z,6.30
2018-12-08T03:49:05.691Z,6.32
2018-12-08T03:51:35.773Z,6.34
2018-12-08T03:54:09.941Z,6.38
2018-12-08T03:56:40.047Z,6.32
2018-12-08T03:59:12.814Z,6.37
2018-12-08T04:01:45.527Z,6.34
2018-12-08T04:04:15.725Z,6.26
2018-12-08T04:06:45.835Z,6.28
2018-12-08T04:09:16.060Z,6.29
2018-12-08T04:11:46.080Z,6.18
2018-12-08T04:14:19.006Z,6.19
2018-12-08T04:16:49.350Z,6.19
2018-12-08T04:19:19.438Z,6.18
2018-12-08T04:21:49.174Z,6.10
2018-12-08T04:24:19.023Z,6.06
2018-12-08T04:26:49.108Z,6.10
2018-12-08T04:29:18.986Z,6.18
2018-12-08T04:31:51.522Z,6.23
2018-12-08T04:34:22.062Z,6.22
2018-12-08T04:36:51.820Z,6.21
2018-12-08T04:39:21.794Z,6.22
2018-12-08T04:41:51.834Z,6.22
2018-12-08T04:44:21.622Z,6.25
2018-12-08T04:46:52.255Z,6.23
2018-12-08T04:49:24.946Z,6.23
2018-12-08T04:51:54.741Z,6.17
2018-12-08T04:54:24.411Z,6.21
2018-12-08T04:56:54.443Z,6.18
2018-12-08T04:59:24.748Z,6.16
2018-12-08T05:01:58.101Z,6.25
2018-12-08T05:04:27.640Z,6.24
2018-12-08T05:06:58.246Z,6.24
2018-12-08T05:09:28.050Z,6.20
2018-12-08T05:11:57.894Z,6.20
2018-12-08T05:14:28.264Z,6.28
2018-12-08T05:16:58.774Z,6.24
2018-12-08T05:19:28.812Z,6.25
2018-12-08T05:22:01.201Z,6.32
2018-12-08T05:24:30.996Z,6.34
2018-12-08T05:27:00.880Z,6.34
2018-12-08T05:29:31.358Z,6.42
2018-12-08T05:32:01.664Z,6.34
2018-12-08T05:34:31.530Z,6.30
2018-12-08T05:37:01.388Z,6.36
2018-12-08T05:39:33.775Z,6.29
2018-12-08T05:42:06.420Z,6.27
2018-12-08T05:44:36.181Z,6.37
2018-12-08T05:47:08.757Z,6.39
2018-12-08T05:49:39.869Z,6.45
2018-12-08T05:52:10.119Z,6.50
2018-12-08T05:54:40.894Z,6.45
2018-12-08T05:57:11.005Z,6.47
2018-12-08T05:59:41.489Z,6.44
2018-12-08T06:02:11.429Z,6.47
2018-12-08T06:04:41.273Z,6.49
2018-12-08T06:07:12.404Z,6.47
2018-12-08T06:09:42.127Z,6.46
2018-12-08T06:12:11.902Z,6.45
2018-12-08T06:14:44.559Z,6.45
2018-12-08T06:17:15.071Z,6.46
2018-12-08T06:19:45.275Z,6.51
2018-12-08T06:22:15.958Z,6.53
2018-12-08T06:24:48.181Z,6.59
2018-12-08T06:27:52.214Z,6.61
2018-12-08T06:30:23.465Z,6.58
2018-12-08T06:32:53.551Z,6.67
2018-12-08T06:35:23.483Z,6.63
2018-12-08T06:37:56.959Z,6.63
2018-12-08T06:40:29.307Z,6.62
2018-12-08T06:42:57.914Z,6.65
2018-12-08T06:45:27.859Z,6.68
2018-12-08T06:47:59.767Z,6.69
2018-12-08T06:50:29.650Z,6.68
2018-12-08T06:53:00.922Z,6.68
2018-12-08T06:55:29.575Z,6.70
2018-12-08T06:57:59.502Z,6.66
2018-12-08T07:00:29.814Z,6.67
2018-12-08T07:02:59.909Z,6.66
2018-12-08T07:05:30.075Z,6.67
2018-12-08T07:08:02.685Z,6.67
2018-12-08T07:10:34.251Z,6.68
2018-12-08T07:13:10.925Z,6.87
2018-12-08T07:15:48.282Z,6.94
2018-12-08T07:18:27.159Z,6.97
2018-12-08T07:20:58.784Z,6.94
2018-12-08T07:23:30.561Z,6.87
2018-12-08T07:26:01.105Z,6.80
2018-12-08T07:28:30.852Z,6.78
2018-12-08T07:31:04.300Z,6.70
2018-12-08T07:33:37.347Z,6.66
2018-12-08T07:36:14.392Z,6.64
2018-12-08T07:38:44.803Z,6.61
2018-12-08T07:41:20.190Z,6.54
2018-12-08T07:43:57.959Z,6.57
2018-12-08T07:46:28.530Z,6.50
2018-12-08T07:49:01.173Z,6.50
2018-12-08T07:51:31.806Z,6.49
2018-12-08T07:54:05.401Z,6.47
2018-12-08T07:56:35.667Z,6.41
2018-12-08T07:59:17.407Z,6.47
2018-12-08T08:01:47.371Z,6.48
2018-12-08T08:04:18.339Z,6.43
2018-12-08T08:06:49.553Z,6.42
2018-12-08T08:09:19.856Z,6.45
2018-12-08T08:11:52.023Z,6.55
2018-12-08T08:14:23.472Z,6.56
2018-12-08T08:16:56.205Z,6.57
2018-12-08T08:19:24.487Z,6.52
2018-12-08T08:21:59.072Z,6.60
2018-12-08T08:24:33.753Z,6.56
2018-12-08T08:27:06.094Z,6.60
2018-12-08T08:29:38.223Z,6.64
2018-12-08T08:32:06.277Z,6.74
2018-12-08T08:34:40.083Z,6.68
2018-12-08T08:37:13.792Z,6.73
2018-12-08T08:39:46.221Z,6.76
2018-12-08T08:42:18.759Z,6.79
2018-12-08T08:44:52.574Z,6.89
2018-12-08T08:47:24.220Z,6.86
2018-12-08T08:49:57.963Z,7.00
2018-12-08T08:52:32.861Z,7.02
2018-12-08T08:55:03.463Z,6.99
2018-12-08T08:57:33.504Z,7.02
2018-12-08T09:00:04.601Z,7.03
2018-12-08T09:02:35.290Z,7.15
2018-12-08T09:05:05.771Z,7.21
2018-12-08T09:07:36.414Z,7.16
2018-12-08T09:10:10.215Z,7.21
2018-12-08T09:12:39.959Z,7.26
2018-12-08T09:15:10.383Z,7.28
2018-12-08T09:17:40.628Z,7.35
2018-12-08T09:20:11.467Z,7.35
2018-12-08T09:22:41.823Z,7.27
2018-12-08T09:25:12.057Z,7.27
2018-12-08T09:27:45.295Z,7.30
2018-12-08T09:30:15.830Z,7.30
2018-12-08T09:32:45.985Z,7.28
2018-12-08T09:35:16.503Z,7.30
2018-12-08T09:37:46.229Z,7.27
2018-12-08T09:40:19.156Z,7.25
2018-12-08T09:42:52.353Z,7.27
2018-12-08T09:45:22.935Z,7.24
2018-12-08T09:47:52.761Z,7.21
2018-12-08T09:50:23.751Z,7.18
2018-12-08T09:53:15.825Z,7.19
2018-12-08T09:55:48.501Z,7.26
2018-12-08T09:58:21.293Z,7.28
2018-12-08T10:00:51.279Z,7.22
2018-12-08T10:03:21.069Z,7.27
2018-12-08T10:05:50.739Z,7.28
2018-12-08T10:08:21.051Z,7.25
2018-12-08T10:10:51.584Z,7.28
2018-12-08T10:13:24.743Z,7.35
2018-12-08T10:15:55.447Z,7.34
2018-12-08T10:18:26.094Z,7.39
2018-12-08T10:20:56.018Z,7.47
2018-12-08T10:23:26.410Z,7.50
2018-12-08T10:25:56.374Z,7.50
2018-12-08T10:28:26.314Z,7.51
2018-12-08T10:30:56.556Z,7.52
2018-12-08T10:33:28.326Z,7.44
2018-12-08T10:36:00.528Z,7.46
2018-12-08T10:38:31.276Z,7.40
2018-12-08T10:41:01.096Z,7.41
2018-12-08T10:43:34.082Z,7.39
2018-12-08T10:46:01.962Z,7.40
2018-12-08T10:48:39.754Z,7.27
2018-12-08T10:51:13.896Z,7.17
2018-12-08T10:53:41.013Z,7.12
2018-12-08T10:56:13.040Z,7.08
2018-12-08T10:58:42.735Z,7.10
2018-12-08T11:01:24.960Z,7.10
2018-12-08T11:03:54.704Z,7.18
2018-12-08T11:06:25.132Z,7.22
2018-12-08T11:08:56.267Z,7.26
2018-12-08T11:11:26.691Z,7.21
2018-12-08T11:14:02.725Z,7.19
2018-12-08T11:16:30.581Z,7.08
2018-12-08T11:18:59.782Z,6.91
2018-12-08T11:21:31.310Z,6.88
2018-12-08T11:24:01.621Z,6.80
2018-12-08T11:26:32.064Z,6.85
2018-12-08T11:29:02.807Z,6.84
2018-12-08T11:31:33.126Z,6.84
2018-12-08T11:34:03.653Z,6.85
2018-12-08T11:36:33.720Z,6.79
2018-12-08T11:39:03.949Z,6.77
2018-12-08T11:41:33.769Z,6.73
2018-12-08T11:44:03.735Z,6.71
2018-12-08T11:46:33.579Z,6.78
2018-12-08T11:49:03.437Z,6.71
2018-12-08T11:51:33.642Z,6.72
2018-12-08T11:54:03.425Z,6.68
2018-12-08T11:56:33.866Z,6.73
2018-12-08T11:59:04.092Z,6.76
2018-12-08T12:01:34.121Z,6.77
2018-12-08T12:04:04.602Z,6.75
2018-12-08T12:06:34.322Z,6.76
2018-12-08T12:09:04.962Z,6.81
2018-12-08T12:11:35.209Z,6.85
2018-12-08T12:14:05.469Z,6.82
2018-12-08T12:16:35.960Z,6.81
2018-12-08T12:19:06.557Z,6.81
2018-12-08T12:21:36.274Z,6.88
2018-12-08T12:24:06.585Z,6.86
2018-12-08T12:26:39.823Z,6.84
2018-12-08T12:29:09.709Z,6.87
2018-12-08T12:31:40.305Z,7.00
2018-12-08T12:34:10.335Z,7.08
2018-12-08T12:36:40.592Z,7.06
2018-12-08T12:39:10.583Z,7.07
2018-12-08T12:41:40.958Z,7.08
2018-12-08T12:44:11.172Z,7.07
2018-12-08T12:46:41.874Z,7.11
2018-12-08T12:49:11.784Z,7.18
2018-12-08T12:51:41.604Z,7.21
2018-12-08T12:54:12.132Z,7.27
2018-12-08T12:56:42.442Z,7.39
2018-12-08T12:59:12.043Z,7.39
2018-12-08T13:01:42.990Z,7.50
2018-12-08T13:04:13.320Z,7.56
2018-12-08T13:06:43.746Z,7.63
2018-12-08T13:09:13.567Z,7.65
2018-12-08T13:11:44.766Z,7.68
2018-12-08T13:14:14.270Z,7.78
2018-12-08T13:16:44.520Z,7.83
2018-12-08T13:19:14.515Z,7.84
2018-12-08T13:21:44.215Z,7.85
2018-12-08T13:24:14.581Z,7.91
2018-12-08T13:26:45.061Z,8.00
2018-12-08T13:29:14.545Z,8.09
2018-12-08T13:31:45.730Z,8.16
2018-12-08T13:34:29.977Z,8.18
2018-12-08T13:37:00.645Z,8.17
2018-12-08T13:39:31.029Z,8.24
2018-12-08T13:42:04.755Z,8.34
2018-12-08T13:44:42.135Z,8.34
2018-12-08T13:47:12.797Z,8.36
2018-12-08T13:49:42.907Z,8.32
2018-12-08T13:52:14.209Z,8.28
2018-12-08T13:54:51.725Z,8.24
2018-12-08T13:57:21.561Z,8.21
2018-12-08T13:59:58.050Z,8.18
2018-12-08T14:02:29.567Z,3.89
2018-12-08T14:04:59.822Z,8.18
2018-12-08T14:07:30.219Z,8.23
2018-12-08T14:10:00.580Z,8.21
2018-12-08T14:12:31.784Z,8.26
2018-12-08T14:15:03.768Z,8.30
2018-12-08T14:17:31.943Z,8.35
2018-12-08T14:20:33.037Z,8.36
2018-12-08T14:23:04.015Z,8.36
2018-12-08T14:25:34.638Z,8.37
2018-12-08T14:28:05.365Z,8.34
2018-12-08T14:30:35.291Z,8.38
2018-12-08T14:33:06.398Z,8.34
2018-12-08T14:35:36.649Z,8.33
2018-12-08T14:38:07.225Z,8.33
2018-12-08T14:40:37.736Z,8.33
2018-12-08T14:43:10.957Z,8.30
2018-12-08T14:45:41.900Z,8.34
2018-12-08T14:48:12.285Z,8.28
2018-12-08T14:50:41.933Z,8.31
2018-12-08T14:53:12.463Z,8.34
2018-12-08T14:55:43.061Z,8.32
2018-12-08T14:58:12.867Z,8.26
2018-12-08T15:00:43.542Z,8.32
2018-12-08T15:03:14.067Z,8.32
2018-12-08T15:05:45.206Z,8.26
2018-12-08T15:08:16.559Z,8.21
2018-12-08T15:10:46.575Z,8.14
2018-12-08T15:13:16.642Z,8.10
2018-12-08T15:15:46.419Z,8.04
2018-12-08T15:18:21.228Z,8.01
2018-12-08T15:20:53.666Z,8.00
2018-12-08T15:23:24.320Z,7.94
2018-12-08T15:25:54.303Z,7.87
2018-12-08T15:28:24.260Z,7.85
2018-12-08T15:30:56.758Z,7.87
2018-12-08T15:33:26.576Z,7.83
2018-12-08T15:35:56.481Z,7.80
2018-12-08T15:38:31.472Z,7.77
2018-12-08T15:41:01.478Z,7.74
2018-12-08T15:43:31.187Z,7.72
2018-12-08T15:46:01.034Z,7.75
2018-12-08T15:48:30.778Z,7.72
2018-12-08T15:51:00.995Z,7.72
2018-12-08T15:53:31.266Z,7.74
2018-12-08T15:56:01.102Z,7.75
2018-12-08T15:58:31.205Z,7.84
2018-12-08T16:01:01.068Z,7.83
2018-12-08T16:03:31.064Z,7.89
2018-12-08T16:06:01.166Z,7.87
2018-12-08T16:08:30.910Z,7.93
2018-12-08T16:11:00.940Z,7.99
2018-12-08T16:13:30.777Z,8.01
2018-12-08T16:16:00.737Z,8.01
2018-12-08T16:18:33.207Z,7.95
2018-12-08T16:21:04.890Z,8.02
2018-12-08T16:23:34.979Z,8.06
2018-12-08T16:26:07.479Z,8.05
2018-12-08T16:28:38.518Z,8.04
2018-12-08T16:31:11.387Z,7.96
2018-12-08T16:33:41.452Z,7.87
2018-12-08T16:36:12.974Z,7.77
2018-12-08T16:38:43.218Z,7.65
2018-12-08T16:41:16.150Z,7.55
2018-12-08T16:43:43.572Z,7.49
2018-12-08T16:46:13.370Z,7.53
2018-12-08T16:48:47.349Z,7.49
2018-12-08T16:51:14.149Z,7.52
2018-12-08T16:53:45.593Z,7.53
2018-12-08T16:56:16.484Z,7.53
2018-12-08T16:58:47.315Z,7.54
2018-12-08T17:01:18.809Z,7.52
2018-12-08T17:03:49.137Z,7.58
2018-12-08T17:06:20.475Z,7.60
2018-12-08T17:08:51.859Z,7.65
2018-12-08T17:11:22.467Z,7.70
2018-12-08T17:13:52.840Z,7.70
2018-12-08T17:16:23.062Z,7.75
2018-12-08T17:18:53.290Z,7.72
2018-12-08T17:21:23.285Z,7.66
2018-12-08T17:23:53.709Z,7.72
2018-12-08T17:26:23.475Z,7.77
2018-12-08T17:28:56.100Z,7.67
2018-12-08T17:31:27.066Z,7.74
2018-12-08T17:33:57.384Z,7.71
2018-12-08T17:36:27.870Z,7.73
2018-12-08T17:38:58.162Z,7.71
2018-12-08T17:41:29.206Z,7.67
2018-12-08T17:43:59.406Z,7.65
2018-12-08T17:46:32.582Z,7.70
2018-12-08T17:49:03.108Z,7.69
2018-12-08T17:51:33.583Z,7.68
2018-12-08T17:54:04.308Z,7.67
2018-12-08T17:56:34.520Z,7.69
2018-12-08T17:59:04.350Z,7.78
2018-12-08T18:01:34.494Z,7.72
2018-12-08T18:04:05.792Z,7.69
2018-12-08T18:06:36.250Z,7.67
2018-12-08T18:09:07.682Z,7.67
2018-12-08T18:11:38.593Z,7.66
2018-12-08T18:14:09.252Z,7.52
2018-12-08T18:16:39.127Z,7.52
2018-12-08T18:19:11.639Z,7.51
2018-12-08T18:21:39.493Z,7.44
2018-12-08T18:24:10.187Z,7.41
2018-12-08T18:26:40.120Z,7.40
2018-12-08T18:29:10.119Z,7.40
2018-12-08T18:31:40.217Z,7.41
2018-12-08T18:34:10.209Z,7.46
2018-12-08T18:36:39.824Z,7.44
2018-12-08T18:39:09.944Z,7.40
2018-12-08T18:41:39.688Z,7.36
2018-12-08T18:44:09.367Z,7.33
2018-12-08T18:46:40.029Z,7.43
2018-12-08T18:49:10.247Z,7.37
2018-12-08T18:51:41.063Z,7.36
2018-12-08T18:54:11.952Z,7.38
2018-12-08T18:56:41.567Z,7.46
2018-12-08T18:59:11.237Z,7.44
2018-12-08T19:01:40.776Z,7.43
2018-12-08T19:04:11.265Z,7.53
2018-12-08T19:06:41.610Z,7.53
2018-12-08T19:09:11.757Z,7.57
2018-12-08T19:11:42.324Z,7.64
2018-12-08T19:14:12.138Z,7.70
2018-12-08T19:16:43.399Z,7.71
2018-12-08T19:19:13.930Z,7.80
2018-12-08T19:21:43.972Z,7.81
2018-12-08T19:24:14.072Z,7.79
2018-12-08T19:26:45.260Z,7.76
2018-12-08T19:29:16.137Z,7.85
2018-12-08T19:31:46.592Z,7.88
2018-12-08T19:34:16.534Z,7.89
2018-12-08T19:36:46.102Z,7.89
2018-12-08T19:39:16.554Z,7.89
2018-12-08T19:41:47.879Z,7.90
2018-12-08T19:44:21.120Z,7.90
2018-12-08T19:46:51.019Z,7.97
2018-12-08T19:49:21.860Z,7.91
2018-12-08T19:51:51.506Z,7.88
2018-12-08T19:54:22.212Z,7.89
2018-12-08T19:56:51.893Z,7.91
2018-12-08T19:59:22.322Z,7.89
2018-12-08T20:01:53.455Z,7.96
2018-12-08T20:04:23.316Z,7.97
2018-12-08T20:06:53.414Z,8.01
2018-12-08T20:09:24.533Z,8.03
2018-12-08T20:11:54.974Z,8.07
2018-12-08T20:14:25.830Z,8.08
2018-12-08T20:16:55.714Z,8.13
2018-12-08T20:19:25.788Z,8.16
2018-12-08T20:22:00.268Z,8.16
2018-12-08T20:24:31.378Z,8.10
2018-12-08T20:27:02.614Z,8.04
2018-12-08T20:29:33.332Z,7.96
2018-12-08T20:32:05.937Z,7.88
2018-12-08T20:34:37.302Z,7.86
2018-12-08T20:37:07.739Z,7.79
2018-12-08T20:39:37.514Z,7.73
2018-12-08T20:42:07.675Z,7.64
2018-12-08T20:44:38.468Z,7.48
2018-12-08T20:47:11.266Z,7.38
2018-12-08T20:49:41.744Z,7.26
2018-12-08T20:52:11.387Z,7.15
2018-12-08T20:54:41.525Z,7.04
2018-12-08T20:57:11.973Z,6.97
2018-12-08T20:59:42.982Z,6.89
2018-12-08T21:02:12.888Z,6.80
2018-12-08T21:04:42.499Z,6.75
2018-12-08T21:07:12.510Z,6.75
2018-12-08T21:09:42.682Z,6.73
2018-12-08T21:12:12.740Z,6.72
2018-12-08T21:14:42.538Z,6.73
2018-12-08T21:17:12.576Z,6.72
2018-12-08T21:19:42.012Z,6.72
2018-12-08T21:22:11.774Z,6.74
2018-12-08T21:24:41.368Z,6.73
2018-12-08T21:27:11.290Z,6.71
2018-12-08T21:29:41.198Z,6.71
2018-12-08T21:32:11.133Z,6.72
2018-12-08T21:34:40.953Z,6.68
2018-12-08T21:37:12.112Z,6.71
2018-12-08T21:39:41.882Z,6.66
2018-12-08T21:42:11.887Z,6.70
2018-12-08T21:44:42.846Z,6.69
2018-12-08T21:47:12.488Z,6.66
2018-12-08T21:49:42.309Z,6.66
2018-12-08T21:52:12.573Z,6.68
2018-12-08T21:54:42.901Z,6.73
2018-12-08T21:57:12.922Z,6.73
2018-12-08T21:59:42.664Z,6.73
2018-12-08T22:02:12.162Z,6.72
2018-12-08T22:04:41.912Z,6.72
2018-12-08T22:07:12.808Z,6.73
2018-12-08T22:09:43.024Z,6.73
2018-12-08T22:12:12.925Z,6.76
2018-12-08T22:15:01.375Z,6.74
2018-12-08T22:17:31.457Z,6.76
2018-12-08T22:20:04.622Z,6.78
2018-12-08T22:22:34.612Z,6.80
2018-12-08T22:25:04.818Z,6.81
2018-12-08T22:27:34.488Z,6.84
2018-12-08T22:30:04.861Z,6.89
2018-12-08T22:32:34.506Z,6.94
2018-12-08T22:35:07.474Z,6.97
2018-12-08T22:37:37.441Z,7.00
2018-12-08T22:40:08.419Z,7.02
2018-12-08T22:42:40.621Z,7.09
2018-12-08T22:45:08.474Z,7.12
2018-12-08T22:47:38.881Z,7.16
2018-12-08T22:50:09.293Z,7.19
2018-12-08T22:52:39.375Z,7.30
2018-12-08T22:55:11.761Z,7.33
2018-12-08T22:57:41.507Z,7.36
2018-12-08T23:00:48.201Z,7.60
2018-12-08T23:03:18.419Z,7.57
2018-12-08T23:05:48.165Z,7.45
2018-12-08T23:08:17.785Z,7.36
2018-12-08T23:10:47.653Z,7.39
2018-12-08T23:13:17.266Z,7.39
2018-12-08T23:15:47.166Z,7.48
2018-12-08T23:18:17.101Z,7.50
2018-12-08T23:20:47.258Z,7.61
2018-12-08T23:23:20.053Z,7.71
2018-12-08T23:25:50.579Z,7.78
2018-12-08T23:28:20.274Z,7.86
2018-12-08T23:30:53.661Z,7.87
2018-12-08T23:33:23.578Z,7.75
2018-12-08T23:35:53.318Z,7.89
2018-12-08T23:38:23.099Z,7.95
2018-12-08T23:40:52.930Z,7.99
2018-12-08T23:43:22.900Z,7.92
2018-12-08T23:45:55.253Z,7.85
2018-12-08T23:48:22.724Z,7.85
2018-12-08T23:50:52.477Z,7.86
2018-12-08T23:53:22.063Z,7.85
2018-12-08T23:55:54.622Z,7.78
2018-12-08T23:58:24.597Z,7.71
